EZY363V EGSS-EGPH
Flight info
| Callsign | EZY363V |
|---|---|
| Flight time | 0h 50m |
| Altitude | 32000 |
| Route | UTAVA Q75 BUZAD T420 TNT UN57 POL UN601 RIBEL DCT INPIP |
| Aircraft | A320/M-SDE3FGHIRWY/LB1 |
Departure
| Time | 2026-05-04 20:58 |
|---|---|
| Airport | London Stansted Airport (EGSS) |
Arrival
| Time | 2026-05-04 21:48 |
|---|---|
| Airport | Edinburgh Airport (EGPH) |
| Time | Latitude | Longitude | Altitude | Speed | Heading |
|---|---|---|---|---|---|
| 2026-05-04 20:36 | 51.88828 | 0.25467 | 340 ft | 0 kts | 43° |
| 2026-05-04 20:48 | 51.88818 | 0.25452 | 347 ft | 2 kts | 43° |
| 2026-05-04 20:49 | 51.88806 | 0.25434 | 355 ft | 2 kts | 43° |
| 2026-05-04 20:49 | 51.88794 | 0.25415 | 349 ft | 2 kts | 33° |
| 2026-05-04 20:49 | 51.88779 | 0.25404 | 349 ft | 2 kts | 7° |
| 2026-05-04 20:49 | 51.88762 | 0.25404 | 354 ft | 2 kts | 347° |
| 2026-05-04 20:50 | 51.88748 | 0.25412 | 348 ft | 1 kts | 322° |
| 2026-05-04 20:50 | 51.88744 | 0.25416 | 355 ft | 0 kts | 313° |
| 2026-05-04 20:52 | 51.88749 | 0.25407 | 344 ft | 5 kts | 313° |
| 2026-05-04 20:52 | 51.88789 | 0.25336 | 347 ft | 11 kts | 313° |
| 2026-05-04 20:52 | 51.88853 | 0.25223 | 347 ft | 16 kts | 312° |
| 2026-05-04 20:53 | 51.88938 | 0.25075 | 349 ft | 20 kts | 313° |
| 2026-05-04 20:53 | 51.88947 | 0.24933 | 348 ft | 12 kts | 216° |
| 2026-05-04 20:53 | 51.88877 | 0.24825 | 349 ft | 16 kts | 223° |
| 2026-05-04 20:53 | 51.88784 | 0.24685 | 350 ft | 20 kts | 223° |
| 2026-05-04 20:54 | 51.88668 | 0.24513 | 350 ft | 25 kts | 223° |
| 2026-05-04 20:54 | 51.88531 | 0.24307 | 348 ft | 29 kts | 223° |
| 2026-05-04 20:54 | 51.88372 | 0.24069 | 338 ft | 33 kts | 223° |
| 2026-05-04 20:54 | 51.88258 | 0.23896 | 336 ft | 32 kts | 223° |
| 2026-05-04 20:55 | 51.88108 | 0.23673 | 336 ft | 20 kts | 223° |
| 2026-05-04 20:55 | 51.87991 | 0.23499 | 336 ft | 25 kts | 223° |
| 2026-05-04 20:55 | 51.87846 | 0.23281 | 334 ft | 9 kts | 223° |
| 2026-05-04 20:55 | 51.87788 | 0.23194 | 334 ft | 14 kts | 223° |
| 2026-05-04 20:56 | 51.87737 | 0.23114 | 336 ft | 16 kts | 233° |
| 2026-05-04 20:56 | 51.87780 | 0.22946 | 334 ft | 20 kts | 312° |
| 2026-05-04 20:56 | 51.87857 | 0.22809 | 334 ft | 16 kts | 312° |
| 2026-05-04 20:56 | 51.87944 | 0.22667 | 334 ft | 13 kts | 330° |
| 2026-05-04 20:57 | 51.88001 | 0.22730 | 331 ft | 12 kts | 43° |
| 2026-05-04 20:57 | 51.88140 | 0.22934 | 331 ft | 57 kts | 43° |
| 2026-05-04 20:57 | 51.88601 | 0.23625 | 336 ft | 120 kts | 43° |
| 2026-05-04 20:57 | 51.89340 | 0.24729 | 377 ft | 164 kts | 40° |
| 2026-05-04 20:58 | 51.90178 | 0.25997 | 999 ft | 166 kts | 41° |
| 2026-05-04 20:58 | 51.91020 | 0.27275 | 1736 ft | 168 kts | 43° |
| 2026-05-04 20:58 | 51.91925 | 0.28640 | 2068 ft | 188 kts | 41° |
| 2026-05-04 20:58 | 51.93119 | 0.29747 | 2369 ft | 209 kts | 14° |
| 2026-05-04 20:59 | 51.94624 | 0.29778 | 2810 ft | 228 kts | 345° |
| 2026-05-04 20:59 | 51.96016 | 0.28496 | 3551 ft | 235 kts | 318° |
| 2026-05-04 20:59 | 51.97220 | 0.26646 | 4273 ft | 246 kts | 316° |
| 2026-05-04 20:59 | 51.98481 | 0.24634 | 4962 ft | 259 kts | 315° |
| 2026-05-04 21:00 | 51.99775 | 0.22563 | 5815 ft | 263 kts | 312° |
| 2026-05-04 21:00 | 52.00732 | 0.20075 | 6656 ft | 267 kts | 291° |
| 2026-05-04 21:00 | 52.01403 | 0.17243 | 7511 ft | 270 kts | 290° |
| 2026-05-04 21:00 | 52.02068 | 0.14382 | 8352 ft | 273 kts | 290° |
| 2026-05-04 21:01 | 52.02743 | 0.11458 | 9198 ft | 278 kts | 290° |
| 2026-05-04 21:01 | 52.03426 | 0.08504 | 10026 ft | 282 kts | 290° |
| 2026-05-04 21:01 | 52.04135 | 0.05437 | 10462 ft | 301 kts | 290° |
| 2026-05-04 21:01 | 52.04900 | 0.02124 | 10699 ft | 324 kts | 290° |
| 2026-05-04 21:02 | 52.05713 | -0.01394 | 11168 ft | 337 kts | 290° |
| 2026-05-04 21:02 | 52.06720 | -0.04870 | 11834 ft | 344 kts | 303° |
| 2026-05-04 21:02 | 52.08387 | -0.07682 | 12517 ft | 350 kts | 324° |
| 2026-05-04 21:02 | 52.10482 | -0.09743 | 13236 ft | 354 kts | 329° |
| 2026-05-04 21:03 | 52.12633 | -0.11750 | 13949 ft | 358 kts | 329° |
| 2026-05-04 21:03 | 52.14807 | -0.13767 | 14571 ft | 362 kts | 329° |
| 2026-05-04 21:03 | 52.17003 | -0.15813 | 15200 ft | 366 kts | 329° |
| 2026-05-04 21:03 | 52.19222 | -0.17894 | 15823 ft | 369 kts | 329° |
| 2026-05-04 21:04 | 52.21434 | -0.19974 | 16424 ft | 373 kts | 328° |
| 2026-05-04 21:04 | 52.23696 | -0.22101 | 17042 ft | 377 kts | 328° |
| 2026-05-04 21:04 | 52.25980 | -0.24250 | 17657 ft | 381 kts | 328° |
| 2026-05-04 21:04 | 52.28290 | -0.26427 | 18260 ft | 384 kts | 328° |
| 2026-05-04 21:05 | 52.30618 | -0.28629 | 18800 ft | 387 kts | 328° |
| 2026-05-04 21:05 | 52.32958 | -0.30846 | 19319 ft | 390 kts | 328° |
| 2026-05-04 21:05 | 52.35316 | -0.33084 | 19847 ft | 393 kts | 327° |
| 2026-05-04 21:05 | 52.37687 | -0.35336 | 20374 ft | 395 kts | 327° |
| 2026-05-04 21:06 | 52.40051 | -0.37585 | 20892 ft | 398 kts | 327° |
| 2026-05-04 21:06 | 52.42456 | -0.39874 | 21407 ft | 400 kts | 327° |
| 2026-05-04 21:06 | 52.44871 | -0.42172 | 21908 ft | 403 kts | 327° |
| 2026-05-04 21:06 | 52.47307 | -0.44491 | 22410 ft | 405 kts | 327° |
| 2026-05-04 21:07 | 52.49753 | -0.46821 | 22905 ft | 408 kts | 326° |
| 2026-05-04 21:07 | 52.52215 | -0.49172 | 23388 ft | 410 kts | 326° |
| 2026-05-04 21:07 | 52.54678 | -0.51531 | 23816 ft | 413 kts | 326° |
| 2026-05-04 21:07 | 52.57174 | -0.53922 | 24212 ft | 415 kts | 326° |
| 2026-05-04 21:08 | 52.59681 | -0.56331 | 24603 ft | 418 kts | 326° |
| 2026-05-04 21:08 | 52.62195 | -0.58749 | 24976 ft | 420 kts | 326° |
| 2026-05-04 21:08 | 52.64732 | -0.61191 | 25347 ft | 422 kts | 326° |
| 2026-05-04 21:08 | 52.67279 | -0.63644 | 25708 ft | 425 kts | 327° |
| 2026-05-04 21:09 | 52.69836 | -0.66107 | 26068 ft | 427 kts | 327° |
| 2026-05-04 21:09 | 52.72378 | -0.68561 | 26425 ft | 430 kts | 327° |
| 2026-05-04 21:09 | 52.74973 | -0.71071 | 26781 ft | 432 kts | 327° |
| 2026-05-04 21:09 | 52.77574 | -0.73592 | 27139 ft | 434 kts | 327° |
| 2026-05-04 21:10 | 52.80192 | -0.76132 | 27489 ft | 437 kts | 327° |
| 2026-05-04 21:10 | 52.82817 | -0.78683 | 27834 ft | 439 kts | 328° |
| 2026-05-04 21:10 | 52.85461 | -0.81251 | 28171 ft | 441 kts | 328° |
| 2026-05-04 21:10 | 52.88117 | -0.83840 | 28501 ft | 444 kts | 328° |
| 2026-05-04 21:11 | 52.90782 | -0.86441 | 28814 ft | 446 kts | 328° |
| 2026-05-04 21:11 | 52.93462 | -0.89057 | 29121 ft | 448 kts | 328° |
| 2026-05-04 21:11 | 52.96156 | -0.91693 | 29405 ft | 450 kts | 329° |
| 2026-05-04 21:11 | 52.98861 | -0.94346 | 29702 ft | 453 kts | 329° |
| 2026-05-04 21:12 | 53.01550 | -0.96985 | 29979 ft | 455 kts | 329° |
| 2026-05-04 21:12 | 53.04291 | -0.99676 | 30232 ft | 457 kts | 329° |
| 2026-05-04 21:12 | 53.07037 | -1.02375 | 30526 ft | 458 kts | 330° |
| 2026-05-04 21:12 | 53.09782 | -1.05079 | 30900 ft | 457 kts | 330° |
| 2026-05-04 21:13 | 53.12519 | -1.07782 | 31261 ft | 455 kts | 330° |
| 2026-05-04 21:13 | 53.15237 | -1.10470 | 31620 ft | 454 kts | 330° |
| 2026-05-04 21:13 | 53.17950 | -1.13158 | 31955 ft | 454 kts | 330° |
| 2026-05-04 21:13 | 53.20661 | -1.15845 | 32048 ft | 450 kts | 331° |
| 2026-05-04 21:14 | 53.26003 | -1.21148 | 32053 ft | 445 kts | 330° |
| 2026-05-04 21:14 | 53.31327 | -1.26457 | 32056 ft | 444 kts | 330° |
| 2026-05-04 21:15 | 53.36602 | -1.31726 | 32054 ft | 444 kts | 330° |
| 2026-05-04 21:15 | 53.41903 | -1.37048 | 32057 ft | 443 kts | 330° |
| 2026-05-04 21:16 | 53.47187 | -1.42370 | 32051 ft | 443 kts | 330° |
| 2026-05-04 21:16 | 53.52474 | -1.47681 | 32046 ft | 442 kts | 330° |
| 2026-05-04 21:17 | 53.57759 | -1.53009 | 32052 ft | 442 kts | 330° |
| 2026-05-04 21:17 | 53.62992 | -1.58334 | 32052 ft | 441 kts | 330° |
| 2026-05-04 21:18 | 53.68257 | -1.63706 | 32054 ft | 440 kts | 330° |
| 2026-05-04 21:18 | 53.73500 | -1.69052 | 32056 ft | 440 kts | 330° |
| 2026-05-04 21:19 | 53.78731 | -1.74412 | 32057 ft | 439 kts | 329° |
| 2026-05-04 21:19 | 53.83934 | -1.79750 | 32057 ft | 439 kts | 329° |
| 2026-05-04 21:20 | 53.89151 | -1.85109 | 32053 ft | 438 kts | 329° |
| 2026-05-04 21:20 | 53.94373 | -1.90494 | 32050 ft | 438 kts | 329° |
| 2026-05-04 21:21 | 53.99574 | -1.95887 | 32050 ft | 437 kts | 329° |
| 2026-05-04 21:21 | 54.04738 | -2.01253 | 32052 ft | 437 kts | 329° |
| 2026-05-04 21:22 | 54.09925 | -2.06660 | 32053 ft | 436 kts | 328° |
| 2026-05-04 21:22 | 54.15119 | -2.12089 | 32056 ft | 436 kts | 328° |
| 2026-05-04 21:23 | 54.20251 | -2.17464 | 32057 ft | 435 kts | 328° |
| 2026-05-04 21:23 | 54.25418 | -2.22889 | 32059 ft | 435 kts | 328° |
| 2026-05-04 21:24 | 54.30574 | -2.28325 | 32063 ft | 434 kts | 328° |
| 2026-05-04 21:24 | 54.35689 | -2.33717 | 32065 ft | 433 kts | 328° |
| 2026-05-04 21:25 | 54.40814 | -2.39158 | 32064 ft | 433 kts | 327° |
| 2026-05-04 21:25 | 54.45932 | -2.44619 | 32062 ft | 432 kts | 327° |
| 2026-05-04 21:26 | 54.51053 | -2.50080 | 32062 ft | 432 kts | 327° |
| 2026-05-04 21:26 | 54.56161 | -2.55545 | 32067 ft | 432 kts | 327° |
| 2026-05-04 21:27 | 54.61239 | -2.60995 | 32074 ft | 431 kts | 327° |
| 2026-05-04 21:27 | 54.66341 | -2.66480 | 32049 ft | 433 kts | 327° |
| 2026-05-04 21:28 | 54.68894 | -2.69232 | 31820 ft | 433 kts | 327° |
| 2026-05-04 21:28 | 54.71447 | -2.71991 | 31293 ft | 431 kts | 326° |
| 2026-05-04 21:28 | 54.73996 | -2.74753 | 30799 ft | 431 kts | 326° |
| 2026-05-04 21:28 | 54.76536 | -2.77508 | 30311 ft | 430 kts | 326° |
| 2026-05-04 21:29 | 54.79061 | -2.80249 | 29763 ft | 427 kts | 326° |
| 2026-05-04 21:29 | 54.81569 | -2.82972 | 29195 ft | 424 kts | 326° |
| 2026-05-04 21:29 | 54.84058 | -2.85678 | 28639 ft | 420 kts | 326° |
| 2026-05-04 21:29 | 54.86521 | -2.88359 | 28096 ft | 417 kts | 327° |
| 2026-05-04 21:30 | 54.89093 | -2.90649 | 27560 ft | 416 kts | 335° |
| 2026-05-04 21:30 | 54.91758 | -2.92567 | 27035 ft | 413 kts | 335° |
| 2026-05-04 21:30 | 54.94401 | -2.94474 | 26519 ft | 410 kts | 335° |
| 2026-05-04 21:30 | 54.97027 | -2.96372 | 26013 ft | 407 kts | 335° |
| 2026-05-04 21:31 | 55.02222 | -3.00138 | 25034 ft | 402 kts | 334° |
| 2026-05-04 21:31 | 55.04793 | -3.02012 | 24556 ft | 399 kts | 334° |
| 2026-05-04 21:31 | 55.07343 | -3.03872 | 24082 ft | 397 kts | 334° |
| 2026-05-04 21:32 | 55.09887 | -3.05728 | 23621 ft | 394 kts | 334° |
| 2026-05-04 21:32 | 55.12405 | -3.07570 | 23080 ft | 392 kts | 334° |
| 2026-05-04 21:32 | 55.14910 | -3.09401 | 22533 ft | 389 kts | 334° |
| 2026-05-04 21:32 | 55.17395 | -3.11216 | 22007 ft | 386 kts | 334° |
| 2026-05-04 21:33 | 55.19862 | -3.13024 | 21488 ft | 383 kts | 334° |
| 2026-05-04 21:33 | 55.22311 | -3.14824 | 20979 ft | 380 kts | 334° |
| 2026-05-04 21:33 | 55.24734 | -3.16605 | 20460 ft | 375 kts | 334° |
| 2026-05-04 21:33 | 55.27096 | -3.18341 | 19955 ft | 360 kts | 334° |
| 2026-05-04 21:34 | 55.29428 | -3.19740 | 19470 ft | 351 kts | 345° |
| 2026-05-04 21:34 | 55.31050 | -3.20097 | 19150 ft | 346 kts | 355° |
| 2026-05-04 21:34 | 55.33430 | -3.19863 | 18677 ft | 340 kts | 2° |
| 2026-05-04 21:34 | 55.35769 | -3.19492 | 18232 ft | 336 kts | 2° |
| 2026-05-04 21:35 | 55.38098 | -3.19127 | 17738 ft | 336 kts | 1° |
| 2026-05-04 21:35 | 55.40430 | -3.18766 | 17264 ft | 336 kts | 1° |
| 2026-05-04 21:35 | 55.42762 | -3.18409 | 16764 ft | 337 kts | 1° |
| 2026-05-04 21:35 | 55.45103 | -3.18050 | 16252 ft | 339 kts | 1° |
| 2026-05-04 21:36 | 55.47440 | -3.17684 | 15733 ft | 333 kts | 1° |
| 2026-05-04 21:36 | 55.49716 | -3.17317 | 15237 ft | 325 kts | 2° |
| 2026-05-04 21:36 | 55.51911 | -3.16966 | 14751 ft | 317 kts | 1° |
| 2026-05-04 21:36 | 55.54084 | -3.16626 | 14259 ft | 311 kts | 1° |
| 2026-05-04 21:37 | 55.56228 | -3.16293 | 13781 ft | 309 kts | 1° |
| 2026-05-04 21:37 | 55.58368 | -3.15962 | 13246 ft | 308 kts | 1° |
| 2026-05-04 21:37 | 55.60503 | -3.15627 | 12717 ft | 308 kts | 1° |
| 2026-05-04 21:37 | 55.62635 | -3.15289 | 12198 ft | 307 kts | 1° |
| 2026-05-04 21:38 | 55.64759 | -3.14952 | 11686 ft | 305 kts | 1° |
| 2026-05-04 21:38 | 55.66865 | -3.14615 | 11180 ft | 303 kts | 1° |
| 2026-05-04 21:38 | 55.68955 | -3.14280 | 10683 ft | 298 kts | 1° |
| 2026-05-04 21:38 | 55.71003 | -3.13952 | 10194 ft | 292 kts | 1° |
| 2026-05-04 21:39 | 55.73004 | -3.13594 | 9688 ft | 287 kts | 3° |
| 2026-05-04 21:39 | 55.74964 | -3.13137 | 9155 ft | 281 kts | 5° |
| 2026-05-04 21:39 | 55.76886 | -3.12638 | 8635 ft | 276 kts | 5° |
| 2026-05-04 21:39 | 55.78772 | -3.12135 | 8118 ft | 271 kts | 6° |
| 2026-05-04 21:40 | 55.80622 | -3.11646 | 7609 ft | 266 kts | 6° |
| 2026-05-04 21:40 | 55.82436 | -3.11174 | 7110 ft | 261 kts | 6° |
| 2026-05-04 21:40 | 55.84202 | -3.10726 | 6625 ft | 256 kts | 6° |
| 2026-05-04 21:40 | 55.85955 | -3.10286 | 6107 ft | 252 kts | 6° |
| 2026-05-04 21:41 | 55.87681 | -3.09854 | 5574 ft | 248 kts | 6° |
| 2026-05-04 21:41 | 55.89378 | -3.09425 | 5063 ft | 244 kts | 6° |
| 2026-05-04 21:41 | 55.91042 | -3.09001 | 4541 ft | 240 kts | 6° |
| 2026-05-04 21:41 | 55.92675 | -3.08587 | 4372 ft | 236 kts | 6° |
| 2026-05-04 21:42 | 55.94292 | -3.08177 | 4203 ft | 233 kts | 5° |
| 2026-05-04 21:42 | 55.95897 | -3.07771 | 4012 ft | 233 kts | 5° |
| 2026-05-04 21:42 | 55.97486 | -3.07369 | 3893 ft | 226 kts | 5° |
| 2026-05-04 21:42 | 55.99008 | -3.06981 | 3798 ft | 216 kts | 5° |
| 2026-05-04 21:43 | 56.00450 | -3.06611 | 3701 ft | 208 kts | 5° |
| 2026-05-04 21:43 | 56.01841 | -3.06694 | 3589 ft | 196 kts | 340° |
| 2026-05-04 21:43 | 56.02952 | -3.08004 | 3405 ft | 189 kts | 307° |
| 2026-05-04 21:43 | 56.03491 | -3.10102 | 3319 ft | 187 kts | 278° |
| 2026-05-04 21:44 | 56.03343 | -3.12397 | 3166 ft | 189 kts | 248° |
| 2026-05-04 21:44 | 56.02707 | -3.14380 | 2952 ft | 184 kts | 242° |
| 2026-05-04 21:44 | 56.02055 | -3.16313 | 2696 ft | 179 kts | 242° |
| 2026-05-04 21:44 | 56.01420 | -3.18200 | 2458 ft | 175 kts | 242° |
| 2026-05-04 21:45 | 56.00801 | -3.20042 | 2227 ft | 171 kts | 242° |
| 2026-05-04 21:45 | 56.00195 | -3.21844 | 1982 ft | 168 kts | 242° |
| 2026-05-04 21:45 | 55.99601 | -3.23609 | 1778 ft | 162 kts | 242° |
| 2026-05-04 21:45 | 55.99028 | -3.25309 | 1538 ft | 157 kts | 242° |
| 2026-05-04 21:46 | 55.98480 | -3.26935 | 1334 ft | 151 kts | 242° |
| 2026-05-04 21:46 | 55.97963 | -3.28468 | 1132 ft | 140 kts | 242° |
| 2026-05-04 21:46 | 55.97470 | -3.29928 | 918 ft | 133 kts | 241° |
| 2026-05-04 21:46 | 55.97002 | -3.31317 | 738 ft | 132 kts | 240° |
| 2026-05-04 21:47 | 55.96528 | -3.32719 | 553 ft | 131 kts | 240° |
| 2026-05-04 21:47 | 55.96058 | -3.34116 | 334 ft | 131 kts | 240° |
| 2026-05-04 21:47 | 55.95589 | -3.35505 | 172 ft | 130 kts | 240° |
| 2026-05-04 21:47 | 55.95143 | -3.36829 | 113 ft | 107 kts | 238° |
| 2026-05-04 21:48 | 55.94852 | -3.37698 | 114 ft | 57 kts | 239° |
| 2026-05-04 21:48 | 55.94719 | -3.38051 | 114 ft | 19 kts | 208° |
| 2026-05-04 21:48 | 55.94645 | -3.38001 | 114 ft | 9 kts | 147° |
| 2026-05-04 21:48 | 55.94600 | -3.37949 | 113 ft | 7 kts | 135° |
| 2026-05-04 21:49 | 55.94596 | -3.37877 | 113 ft | 8 kts | 72° |
| 2026-05-04 21:49 | 55.94639 | -3.37743 | 116 ft | 17 kts | 59° |
| 2026-05-04 21:49 | 55.94705 | -3.37548 | 114 ft | 18 kts | 59° |
| 2026-05-04 21:49 | 55.94767 | -3.37367 | 115 ft | 16 kts | 59° |
| 2026-05-04 21:50 | 55.94822 | -3.37203 | 113 ft | 15 kts | 59° |
| 2026-05-04 21:50 | 55.94873 | -3.37052 | 113 ft | 13 kts | 59° |
| 2026-05-04 21:50 | 55.94918 | -3.36915 | 113 ft | 12 kts | 59° |
| 2026-05-04 21:50 | 55.94896 | -3.36801 | 114 ft | 12 kts | 145° |
| 2026-05-04 21:51 | 55.94819 | -3.36776 | 116 ft | 11 kts | 178° |
| 2026-05-04 21:51 | 55.94758 | -3.36742 | 113 ft | 9 kts | 129° |
| 2026-05-04 21:51 | 55.94751 | -3.36648 | 114 ft | 7 kts | 86° |
| 2026-05-04 21:51 | 55.94752 | -3.36596 | 116 ft | 0 kts | 89° |